createdAt,value
2018-01-27T00:02:19.242Z,18.40
2018-01-27T00:04:46.897Z,17.70
2018-01-27T00:07:14.390Z,17.98
2018-01-27T00:09:41.998Z,16.30
2018-01-27T00:12:09.473Z,17.83
2018-01-27T00:14:37.124Z,17.42
2018-01-27T00:17:04.566Z,17.30
2018-01-27T00:19:32.027Z,16.83
2018-01-27T00:21:59.511Z,18.73
2018-01-27T00:24:27.054Z,19.43
2018-01-27T00:26:54.573Z,19.63
2018-01-27T00:29:22.070Z,17.73
2018-01-27T00:31:49.505Z,19.00
2018-01-27T00:34:17.009Z,18.50
2018-01-27T00:36:44.474Z,20.67
2018-01-27T00:39:11.916Z,19.10
2018-01-27T00:41:39.612Z,20.83
2018-01-27T00:44:07.101Z,19.40
2018-01-27T00:46:38.166Z,19.03
2018-01-27T00:49:05.658Z,18.55
2018-01-27T00:51:34.859Z,18.57
2018-01-27T00:54:02.350Z,21.90
2018-01-27T00:56:29.977Z,20.67
2018-01-27T00:58:57.432Z,23.23
2018-01-27T01:01:25.134Z,20.43
2018-01-27T01:03:52.573Z,20.13
2018-01-27T01:06:20.057Z,20.10
2018-01-27T01:08:47.529Z,18.27
2018-01-27T01:11:15.075Z,18.65
2018-01-27T01:13:42.595Z,18.00
2018-01-27T01:16:10.092Z,18.37
2018-01-27T01:18:37.714Z,19.10
2018-01-27T01:21:05.158Z,19.60
2018-01-27T01:23:32.859Z,19.93
2018-01-27T01:26:01.235Z,20.30
2018-01-27T01:28:28.780Z,21.43
2018-01-27T01:30:56.365Z,21.50
2018-01-27T01:33:23.919Z,21.77
2018-01-27T01:35:51.585Z,20.57
2018-01-27T01:38:19.119Z,21.17
2018-01-27T01:40:46.694Z,20.20
2018-01-27T01:43:19.805Z,19.50
2018-01-27T01:45:47.238Z,22.08
2018-01-27T01:48:14.931Z,18.37
2018-01-27T01:50:42.361Z,19.10
2018-01-27T01:53:09.913Z,18.70
2018-01-27T01:55:37.478Z,17.70
2018-01-27T01:58:05.798Z,17.07
2018-01-27T02:00:33.316Z,16.37
2018-01-27T02:03:01.304Z,15.80
2018-01-27T02:05:29.144Z,16.13
2018-01-27T02:07:56.652Z,15.03
2018-01-27T02:10:24.102Z,15.60
2018-01-27T02:12:51.750Z,15.47
2018-01-27T02:15:19.222Z,14.93
2018-01-27T02:17:46.773Z,14.27
2018-01-27T02:20:14.242Z,14.30
2018-01-27T02:22:41.685Z,13.77
2018-01-27T02:25:09.133Z,14.63
2018-01-27T02:27:36.590Z,14.30
2018-01-27T02:30:04.157Z,16.00
2018-01-27T02:32:32.511Z,14.95
2018-01-27T02:34:59.979Z,15.70
2018-01-27T02:37:27.445Z,15.13
2018-01-27T02:39:54.932Z,17.40
2018-01-27T02:42:22.389Z,16.70
2018-01-27T02:44:49.860Z,14.80
2018-01-27T02:47:17.297Z,17.20
2018-01-27T02:49:44.805Z,16.15
2018-01-27T02:52:12.258Z,16.67
2018-01-27T02:54:39.822Z,18.30
2018-01-27T02:57:07.301Z,17.50
2018-01-27T02:59:34.753Z,19.67
2018-01-27T03:02:02.422Z,18.73
2018-01-27T03:04:30.005Z,19.67
2018-01-27T03:06:57.558Z,20.07
2018-01-27T03:09:25.097Z,20.23
2018-01-27T03:11:52.546Z,19.70
2018-01-27T03:14:20.289Z,17.70
2018-01-27T03:16:48.820Z,18.50
2018-01-27T03:19:17.290Z,17.98
2018-01-27T03:21:44.751Z,17.10
2018-01-27T03:24:12.190Z,18.77
2018-01-27T03:26:39.988Z,19.27
2018-01-27T03:29:07.428Z,18.45
2018-01-27T03:31:34.875Z,18.80
2018-01-27T03:34:02.485Z,18.70
2018-01-27T03:36:30.237Z,19.17
2018-01-27T03:38:57.771Z,19.60
2018-01-27T03:41:25.312Z,19.13
2018-01-27T03:43:52.788Z,17.98
2018-01-27T03:46:21.239Z,18.40
2018-01-27T03:48:48.794Z,17.87
2018-01-27T03:51:16.246Z,18.60
2018-01-27T03:53:45.899Z,18.13
2018-01-27T03:56:13.362Z,18.55
2018-01-27T03:58:40.810Z,17.37
2018-01-27T04:01:08.243Z,18.90
2018-01-27T04:03:35.692Z,19.80
2018-01-27T04:06:03.118Z,18.47
2018-01-27T04:08:30.672Z,17.63
2018-01-27T04:10:58.111Z,17.60
2018-01-27T04:13:25.582Z,17.60
2018-01-27T04:15:53.018Z,18.60
2018-01-27T04:18:21.199Z,17.90
2018-01-27T04:20:48.622Z,18.27
2018-01-27T04:23:16.097Z,17.60
2018-01-27T04:25:43.912Z,16.73
2018-01-27T04:28:11.561Z,17.83
2018-01-27T04:30:39.101Z,17.00
2018-01-27T04:33:06.593Z,17.97
2018-01-27T04:35:34.034Z,18.63
2018-01-27T04:38:02.108Z,17.25
2018-01-27T04:40:29.569Z,16.43
2018-01-27T04:42:57.285Z,16.62
2018-01-27T04:45:24.746Z,16.87
2018-01-27T04:47:52.270Z,17.20
2018-01-27T04:50:19.813Z,16.67
2018-01-27T04:52:47.262Z,16.37
2018-01-27T04:55:14.797Z,15.80
2018-01-27T04:57:42.875Z,15.07
2018-01-27T05:00:10.324Z,14.67
2018-01-27T05:02:37.827Z,15.70
2018-01-27T05:05:05.241Z,14.27
2018-01-27T05:07:33.441Z,15.10
2018-01-27T05:10:01.081Z,14.20
2018-01-27T05:12:28.555Z,14.33
2018-01-27T05:14:56.017Z,13.57
2018-01-27T05:17:23.563Z,15.53
2018-01-27T05:19:51.058Z,13.77
2018-01-27T05:22:18.806Z,15.55
2018-01-27T05:24:46.291Z,13.50
2018-01-27T05:27:14.026Z,14.50
2018-01-27T05:29:41.686Z,15.13
2018-01-27T05:32:09.259Z,14.40
2018-01-27T05:34:36.740Z,13.52
2018-01-27T05:37:04.447Z,13.68
2018-01-27T05:39:32.472Z,13.62
2018-01-27T05:42:00.296Z,12.93
2018-01-27T05:44:28.060Z,13.63
2018-01-27T05:46:55.528Z,13.53
2018-01-27T05:49:24.188Z,13.00
2018-01-27T05:51:51.797Z,12.93
2018-01-27T05:54:19.558Z,14.13
2018-01-27T05:56:47.644Z,13.35
2018-01-27T05:59:15.202Z,12.50
2018-01-27T06:01:42.666Z,13.30
2018-01-27T06:04:10.142Z,13.18
2018-01-27T06:06:37.623Z,12.57
2018-01-27T06:09:05.096Z,15.00
2018-01-27T06:11:32.758Z,14.57
2018-01-27T06:14:00.177Z,14.50
2018-01-27T06:16:27.717Z,15.33
2018-01-27T06:18:55.187Z,14.60
2018-01-27T06:21:22.690Z,15.27
2018-01-27T06:23:50.408Z,13.97
2018-01-27T06:26:17.994Z,14.80
2018-01-27T06:28:45.441Z,15.50
2018-01-27T06:31:12.962Z,14.90
2018-01-27T06:33:40.458Z,16.30
2018-01-27T06:36:08.089Z,14.60
2018-01-27T06:38:35.558Z,14.75
2018-01-27T06:41:03.071Z,15.37
2018-01-27T06:43:30.734Z,15.27
2018-01-27T06:45:58.209Z,15.53
2018-01-27T06:48:25.671Z,14.48
2018-01-27T06:50:53.330Z,15.67
2018-01-27T06:53:20.820Z,15.90
2018-01-27T06:55:48.253Z,14.90
2018-01-27T06:58:15.808Z,17.05
2018-01-27T07:00:43.408Z,15.67
2018-01-27T07:03:11.150Z,15.80
2018-01-27T07:05:38.654Z,17.00
2018-01-27T07:08:06.117Z,16.07
2018-01-27T07:10:33.870Z,14.63
2018-01-27T07:13:01.356Z,14.27
2018-01-27T07:15:28.799Z,14.55
2018-01-27T07:17:56.329Z,14.60
2018-01-27T07:20:23.769Z,13.83
2018-01-27T07:22:51.334Z,13.87
2018-01-27T07:25:18.898Z,14.55
2018-01-27T07:27:46.333Z,15.17
2018-01-27T07:30:13.797Z,12.10
2018-01-27T07:32:41.325Z,12.57
2018-01-27T07:35:08.794Z,12.97
2018-01-27T07:37:37.164Z,11.60
2018-01-27T07:40:04.630Z,12.20
2018-01-27T07:42:32.987Z,13.40
2018-01-27T07:45:00.586Z,13.17
2018-01-27T07:47:28.327Z,13.53
2018-01-27T07:49:55.833Z,13.90
2018-01-27T07:52:23.346Z,13.40
2018-01-27T07:54:51.061Z,14.33
2018-01-27T07:57:18.511Z,12.10
2018-01-27T07:59:45.967Z,12.55
2018-01-27T08:02:13.541Z,12.05
2018-01-27T08:04:40.993Z,11.05
2018-01-27T08:07:08.494Z,11.00
2018-01-27T08:09:35.955Z,12.73
2018-01-27T08:12:03.475Z,12.30
2018-01-27T08:14:30.957Z,10.60
2018-01-27T08:16:58.406Z,11.50
2018-01-27T08:19:25.861Z,12.30
2018-01-27T08:21:53.313Z,10.17
2018-01-27T08:24:20.745Z,10.93
2018-01-27T08:26:48.194Z,9.80
2018-01-27T08:29:15.730Z,10.50
2018-01-27T08:31:43.261Z,10.20
2018-01-27T08:34:11.780Z,10.00
2018-01-27T08:36:39.250Z,9.68
2018-01-27T08:39:06.692Z,10.70
2018-01-27T08:41:34.155Z,10.07
2018-01-27T08:44:02.117Z,11.90
2018-01-27T08:46:29.610Z,10.30
2018-01-27T08:48:57.081Z,9.10
2018-01-27T08:51:24.534Z,11.83
2018-01-27T08:53:51.972Z,9.40
2018-01-27T08:56:19.433Z,10.17
2018-01-27T08:58:46.867Z,9.97
2018-01-27T09:01:15.282Z,10.75
2018-01-27T09:03:43.563Z,9.50
2018-01-27T09:06:12.026Z,10.37
2018-01-27T09:08:39.586Z,10.73
2018-01-27T09:11:07.057Z,10.43
2018-01-27T09:13:34.511Z,10.68
2018-01-27T09:16:01.955Z,11.10
2018-01-27T09:18:29.410Z,10.07
2018-01-27T09:20:56.842Z,9.70
2018-01-27T09:23:24.297Z,9.33
2018-01-27T09:25:51.773Z,10.80
2018-01-27T09:28:19.238Z,9.30
2018-01-27T09:30:46.795Z,10.73
2018-01-27T09:33:14.264Z,10.17
2018-01-27T09:35:41.704Z,10.27
2018-01-27T09:38:09.169Z,10.90
2018-01-27T09:40:36.609Z,10.67
2018-01-27T09:43:04.190Z,11.17
2018-01-27T09:45:31.631Z,10.70
2018-01-27T09:47:59.088Z,10.67
2018-01-27T09:50:26.527Z,10.37
2018-01-27T09:52:54.022Z,11.00
2018-01-27T09:55:21.601Z,10.77
2018-01-27T09:57:49.073Z,12.05
2018-01-27T10:00:16.617Z,11.73
2018-01-27T10:02:44.067Z,12.50
2018-01-27T10:05:11.517Z,12.13
2018-01-27T10:07:38.978Z,11.87
2018-01-27T10:10:06.843Z,13.88
2018-01-27T10:12:34.283Z,14.23
2018-01-27T10:15:01.769Z,12.73
2018-01-27T10:17:29.220Z,12.53
2018-01-27T10:19:58.981Z,12.87
2018-01-27T10:22:32.894Z,12.63
2018-01-27T10:25:00.871Z,13.97
2018-01-27T10:27:28.324Z,13.00
2018-01-27T10:29:55.789Z,11.30
2018-01-27T10:32:23.225Z,13.63
2018-01-27T10:34:50.668Z,11.47
2018-01-27T10:37:18.181Z,11.33
2018-01-27T10:39:45.698Z,9.98
2018-01-27T10:42:13.139Z,12.00
2018-01-27T10:44:40.607Z,11.18
2018-01-27T10:47:08.303Z,12.10
2018-01-27T10:49:35.783Z,12.67
2018-01-27T10:52:05.577Z,10.50
2018-01-27T10:54:33.123Z,10.73
2018-01-27T10:57:00.594Z,11.90
2018-01-27T10:59:28.167Z,10.43
2018-01-27T11:01:55.633Z,11.30
2018-01-27T11:04:23.912Z,11.17
2018-01-27T11:06:51.353Z,11.63
2018-01-27T11:09:18.796Z,11.60
2018-01-27T11:11:46.250Z,11.47
2018-01-27T11:14:13.713Z,12.05
2018-01-27T11:16:41.466Z,10.03
2018-01-27T11:19:09.349Z,11.92
2018-01-27T11:21:36.812Z,12.50
2018-01-27T11:24:05.378Z,11.10
2018-01-27T11:26:32.938Z,13.43
2018-01-27T11:29:00.386Z,13.27
2018-01-27T11:31:27.844Z,13.63
2018-01-27T11:33:55.283Z,13.70
2018-01-27T11:36:22.754Z,13.67
2018-01-27T11:38:50.191Z,13.88
2018-01-27T11:41:17.648Z,15.23
2018-01-27T11:43:45.087Z,15.35
2018-01-27T11:46:12.564Z,15.75
2018-01-27T11:48:40.130Z,15.00
2018-01-27T11:51:07.893Z,15.10
2018-01-27T11:53:35.378Z,16.53
2018-01-27T11:56:02.817Z,17.93
2018-01-27T11:58:30.291Z,15.53
2018-01-27T12:00:57.729Z,15.37
2018-01-27T12:03:25.207Z,14.67
2018-01-27T12:05:52.729Z,16.00
2018-01-27T12:08:20.196Z,15.40
2018-01-27T12:10:47.679Z,16.03
2018-01-27T12:13:15.130Z,17.23
2018-01-27T12:15:42.580Z,16.27
2018-01-27T12:18:10.142Z,17.03
2018-01-27T12:20:37.593Z,16.50
2018-01-27T12:23:05.050Z,15.97
2018-01-27T12:25:32.500Z,17.42
2018-01-27T12:27:59.955Z,17.67
2018-01-27T12:30:27.428Z,17.30
2018-01-27T12:32:54.887Z,16.70
2018-01-27T12:35:22.327Z,16.47
2018-01-27T12:37:49.771Z,16.87
2018-01-27T12:40:17.221Z,53.80
2018-01-27T12:42:44.666Z,16.93
2018-01-27T12:45:12.122Z,17.23
2018-01-27T12:47:39.576Z,16.97
2018-01-27T12:50:07.029Z,16.63
2018-01-27T12:52:34.617Z,18.95
2018-01-27T12:55:02.342Z,16.97
2018-01-27T12:57:30.974Z,17.60
2018-01-27T12:59:58.426Z,17.00
2018-01-27T13:02:25.925Z,18.77
2018-01-27T13:04:53.385Z,18.17
2018-01-27T13:07:20.844Z,19.00
2018-01-27T13:09:49.141Z,19.07
2018-01-27T13:12:16.588Z,20.90
2018-01-27T13:14:44.033Z,17.57
2018-01-27T13:17:11.505Z,19.30
2018-01-27T13:19:39.219Z,16.67
2018-01-27T13:22:06.694Z,16.40
2018-01-27T13:24:34.855Z,17.23
2018-01-27T13:27:02.390Z,17.93
2018-01-27T13:29:29.846Z,17.93
2018-01-27T13:31:57.358Z,18.67
2018-01-27T13:34:24.825Z,20.97
2018-01-27T13:36:52.652Z,21.30
2018-01-27T13:39:20.110Z,21.25
2018-01-27T13:41:48.157Z,21.53
2018-01-27T13:44:15.585Z,22.55
2018-01-27T13:46:43.106Z,21.80
2018-01-27T13:49:10.637Z,22.92
2018-01-27T13:51:38.099Z,22.65
2018-01-27T13:54:05.537Z,22.23
2018-01-27T13:56:32.970Z,23.90
2018-01-27T13:59:00.525Z,24.63
2018-01-27T14:01:28.196Z,21.80
2018-01-27T14:03:55.672Z,24.13
2018-01-27T14:06:23.236Z,23.23
2018-01-27T14:08:51.015Z,30.10
2018-01-27T14:11:18.482Z,28.07
2018-01-27T14:13:45.961Z,23.10
2018-01-27T14:16:13.399Z,20.05
2018-01-27T14:18:40.919Z,23.27
2018-01-27T14:21:08.362Z,21.10
2018-01-27T14:23:36.144Z,22.62
2018-01-27T14:26:03.637Z,21.90
2018-01-27T14:28:31.087Z,26.20
2018-01-27T14:30:58.544Z,24.93
2018-01-27T14:33:26.141Z,24.60
2018-01-27T14:35:53.590Z,23.70
2018-01-27T14:38:21.097Z,22.73
2018-01-27T14:40:48.553Z,23.73
2018-01-27T14:43:16.110Z,22.60
2018-01-27T14:45:43.658Z,23.73
2018-01-27T14:48:11.136Z,26.05
2018-01-27T14:50:38.642Z,23.10
2018-01-27T14:53:06.096Z,23.37
2018-01-27T14:55:33.594Z,21.47
2018-01-27T14:58:01.048Z,23.67
2018-01-27T15:00:28.505Z,22.77
2018-01-27T15:02:55.968Z,22.60
2018-01-27T15:05:23.422Z,20.00
2018-01-27T15:07:50.907Z,19.93
2018-01-27T15:10:18.362Z,20.47
2018-01-27T15:12:45.814Z,19.30
2018-01-27T15:15:13.261Z,22.60
2018-01-27T15:17:40.716Z,19.80
2018-01-27T15:20:08.181Z,19.00
2018-01-27T15:22:35.620Z,21.30
2018-01-27T15:25:03.087Z,20.80
2018-01-27T15:27:30.598Z,19.83
2018-01-27T15:29:58.057Z,18.67
2018-01-27T15:32:25.511Z,19.03
2018-01-27T15:34:53.023Z,19.33
2018-01-27T15:37:20.598Z,21.07
2018-01-27T15:39:48.120Z,25.77
2018-01-27T15:42:15.561Z,23.27
2018-01-27T15:44:43.378Z,21.48
2018-01-27T15:47:10.837Z,25.20
2018-01-27T15:49:38.284Z,27.67
2018-01-27T15:52:05.729Z,24.37
2018-01-27T15:54:33.231Z,25.23
2018-01-27T15:57:00.678Z,25.37
2018-01-27T15:59:28.117Z,25.80
2018-01-27T16:01:55.576Z,28.35
2018-01-27T16:04:23.016Z,27.23
2018-01-27T16:06:50.529Z,24.08
2018-01-27T16:09:18.036Z,32.43
2018-01-27T16:11:49.909Z,27.75
2018-01-27T16:14:17.394Z,25.45
2018-01-27T16:16:44.845Z,28.10
2018-01-27T16:19:12.338Z,25.40
2018-01-27T16:21:39.810Z,24.90
2018-01-27T16:24:07.261Z,24.30
2018-01-27T16:26:35.650Z,24.55
2018-01-27T16:29:03.085Z,25.20
2018-01-27T16:31:31.428Z,24.77
2018-01-27T16:33:58.890Z,26.43
2018-01-27T16:36:26.351Z,25.90
2018-01-27T16:38:53.797Z,26.27
2018-01-27T16:41:21.273Z,26.27
2018-01-27T16:43:48.749Z,23.75
2018-01-27T16:46:16.217Z,24.60
2018-01-27T16:48:43.697Z,27.27
2018-01-27T16:51:11.154Z,26.17
2018-01-27T16:53:38.630Z,28.50
2018-01-27T16:56:06.081Z,29.40
2018-01-27T16:58:35.125Z,27.97
2018-01-27T17:01:02.932Z,30.40
2018-01-27T17:03:30.397Z,30.47
2018-01-27T17:05:57.878Z,31.80
2018-01-27T17:08:25.356Z,28.57
2018-01-27T17:10:52.844Z,30.60
2018-01-27T17:13:20.302Z,27.62
2018-01-27T17:15:49.049Z,26.27
2018-01-27T17:18:16.506Z,29.57
2018-01-27T17:20:43.941Z,26.95
2018-01-27T17:23:11.393Z,25.10
2018-01-27T17:25:38.986Z,25.70
2018-01-27T17:28:06.450Z,28.27
2018-01-27T17:30:34.166Z,29.77
2018-01-27T17:33:01.613Z,28.37
2018-01-27T17:35:29.150Z,29.53
2018-01-27T17:37:56.606Z,31.20
2018-01-27T17:40:24.042Z,31.62
2018-01-27T17:42:53.487Z,34.00
2018-01-27T17:45:20.924Z,31.02
2018-01-27T17:47:48.395Z,32.37
2018-01-27T17:50:15.831Z,30.40
2018-01-27T17:52:43.269Z,31.33
2018-01-27T17:55:10.709Z,31.20
2018-01-27T17:57:38.167Z,32.50
2018-01-27T18:00:06.118Z,34.13
2018-01-27T18:02:33.581Z,32.13
2018-01-27T18:05:01.046Z,36.65
2018-01-27T18:07:28.494Z,32.03
2018-01-27T18:09:56.918Z,36.70
2018-01-27T18:12:24.346Z,37.23
2018-01-27T18:14:51.813Z,39.88
2018-01-27T18:17:19.248Z,35.97
2018-01-27T18:19:46.758Z,38.37
2018-01-27T18:22:14.186Z,38.13
2018-01-27T18:24:41.669Z,40.50
2018-01-27T18:27:09.126Z,35.42
2018-01-27T18:29:36.743Z,34.33
2018-01-27T18:32:04.304Z,33.83
2018-01-27T18:34:31.788Z,36.50
2018-01-27T18:36:59.785Z,36.08
2018-01-27T18:39:27.355Z,38.93
2018-01-27T18:41:56.496Z,39.03
2018-01-27T18:44:23.950Z,37.17
2018-01-27T18:46:51.585Z,41.50
2018-01-27T18:49:19.057Z,37.63
2018-01-27T18:51:46.588Z,39.17
2018-01-27T18:54:14.062Z,37.80
2018-01-27T18:56:41.514Z,40.80
2018-01-27T18:59:08.977Z,36.13
2018-01-27T19:01:46.337Z,34.20
2018-01-27T19:04:13.788Z,31.47
2018-01-27T19:06:42.339Z,29.90
2018-01-27T19:09:09.844Z,30.63
2018-01-27T19:11:38.385Z,28.70
2018-01-27T19:14:08.060Z,29.82
2018-01-27T19:16:36.530Z,29.45
2018-01-27T19:19:04.527Z,31.63
2018-01-27T19:21:34.758Z,30.77
2018-01-27T19:24:05.877Z,30.87
2018-01-27T19:26:33.500Z,31.17
2018-01-27T19:29:00.941Z,31.70
2018-01-27T19:31:28.392Z,30.90
2018-01-27T19:33:55.944Z,33.70
2018-01-27T19:36:23.434Z,31.67
2018-01-27T19:38:51.850Z,32.72
2018-01-27T19:41:19.318Z,30.93
2018-01-27T19:43:46.849Z,31.62
2018-01-27T19:46:14.334Z,32.67
2018-01-27T19:48:41.816Z,33.40
2018-01-27T19:51:09.505Z,28.40
2018-01-27T19:53:38.858Z,28.65
2018-01-27T19:56:07.365Z,31.20
2018-01-27T19:58:35.380Z,28.67
2018-01-27T20:01:03.256Z,28.20
2018-01-27T20:03:30.803Z,27.42
2018-01-27T20:05:58.236Z,28.27
2018-01-27T20:08:25.888Z,28.80
2018-01-27T20:10:53.680Z,25.58
2018-01-27T20:13:21.271Z,28.10
2018-01-27T20:15:49.006Z,27.95
2018-01-27T20:18:16.846Z,30.93
2018-01-27T20:20:44.309Z,30.17
2018-01-27T20:23:12.773Z,28.82
2018-01-27T20:25:40.232Z,31.57
2018-01-27T20:28:07.741Z,31.53
2018-01-27T20:30:35.623Z,29.53
2018-01-27T20:33:03.129Z,30.20
2018-01-27T20:35:33.282Z,31.77
2018-01-27T20:38:00.730Z,29.10
2018-01-27T20:40:28.180Z,32.93
2018-01-27T20:42:55.664Z,28.90
2018-01-27T20:45:23.214Z,25.30
2018-01-27T20:47:50.799Z,25.80
2018-01-27T20:50:18.302Z,27.47
2018-01-27T20:52:45.772Z,27.85
2018-01-27T20:55:13.276Z,26.52
2018-01-27T20:57:40.715Z,26.70
2018-01-27T21:00:08.212Z,26.20
2018-01-27T21:02:35.690Z,25.50
2018-01-27T21:05:03.151Z,28.30
2018-01-27T21:07:30.586Z,26.40
2018-01-27T21:09:58.270Z,24.58
2018-01-27T21:12:25.696Z,25.17
2018-01-27T21:14:55.197Z,23.95
2018-01-27T21:17:22.677Z,24.40
2018-01-27T21:19:50.135Z,20.97
2018-01-27T21:22:17.593Z,24.47
2018-01-27T21:24:45.034Z,25.77
2018-01-27T21:27:12.484Z,25.77
2018-01-27T21:29:39.921Z,25.80
2018-01-27T21:32:07.365Z,25.50
2018-01-27T21:34:34.801Z,27.13
2018-01-27T21:37:02.267Z,28.63
2018-01-27T21:39:29.697Z,26.67
2018-01-27T21:41:57.147Z,28.97
2018-01-27T21:44:24.623Z,25.88
2018-01-27T21:46:52.079Z,25.87
2018-01-27T21:49:19.519Z,28.53
2018-01-27T21:51:47.010Z,30.00
2018-01-27T21:54:14.438Z,30.77
2018-01-27T21:56:41.904Z,30.43
2018-01-27T21:59:09.367Z,30.63
2018-01-27T22:01:37.354Z,29.73
2018-01-27T22:04:04.981Z,31.77
2018-01-27T22:06:32.424Z,32.50
2018-01-27T22:08:59.885Z,34.63
2018-01-27T22:11:27.321Z,32.30
2018-01-27T22:13:54.785Z,36.57
2018-01-27T22:16:22.238Z,31.45
2018-01-27T22:18:49.698Z,34.38
2018-01-27T22:21:17.145Z,31.70
2018-01-27T22:23:44.653Z,32.10
2018-01-27T22:26:12.099Z,32.10
2018-01-27T22:28:39.743Z,30.33
2018-01-27T22:31:07.488Z,31.20
2018-01-27T22:33:34.944Z,34.90
2018-01-27T22:36:02.381Z,32.85
2018-01-27T22:38:29.844Z,33.23
2018-01-27T22:40:57.316Z,34.85
2018-01-27T22:43:24.764Z,31.57
2018-01-27T22:45:52.226Z,34.30
2018-01-27T22:48:19.677Z,32.67
2018-01-27T22:50:47.121Z,34.03
2018-01-27T22:53:14.553Z,33.13
2018-01-27T22:55:42.011Z,34.30
2018-01-27T22:58:09.530Z,36.00
2018-01-27T23:00:37.366Z,32.00
2018-01-27T23:03:04.826Z,31.07
2018-01-27T23:05:32.322Z,31.80
2018-01-27T23:07:59.850Z,33.50
2018-01-27T23:10:27.336Z,31.40
2018-01-27T23:12:54.766Z,30.60
2018-01-27T23:15:22.250Z,27.10
2018-01-27T23:17:49.815Z,29.98
2018-01-27T23:20:17.255Z,30.88
2018-01-27T23:22:44.687Z,24.60
2018-01-27T23:25:12.113Z,28.03
2018-01-27T23:27:39.606Z,28.73
2018-01-27T23:30:07.974Z,29.92
2018-01-27T23:32:36.391Z,27.30
2018-01-27T23:35:03.864Z,23.63
2018-01-27T23:37:31.308Z,28.83
2018-01-27T23:39:58.811Z,25.92
2018-01-27T23:42:26.287Z,26.23
2018-01-27T23:44:53.766Z,23.80
2018-01-27T23:47:21.388Z,25.33
2018-01-27T23:49:48.863Z,26.55
2018-01-27T23:52:16.390Z,27.03
2018-01-27T23:54:43.896Z,27.02
2018-01-27T23:57:16.419Z,26.70
2018-01-27T23:59:43.921Z,29.27
